createdAt,value
2018-03-27T00:00:49.047Z,41.28
2018-03-27T00:01:51.546Z,50.33
2018-03-27T00:02:54.045Z,38.65
2018-03-27T00:03:57.354Z,40.45
2018-03-27T00:05:00.405Z,40.75
2018-03-27T00:06:02.910Z,41.22
2018-03-27T00:07:05.411Z,42.45
2018-03-27T00:08:07.902Z,47.13
2018-03-27T00:09:10.438Z,45.88
2018-03-27T00:10:13.000Z,41.75
2018-03-27T00:11:15.557Z,46.17
2018-03-27T00:12:18.046Z,43.33
2018-03-27T00:13:20.565Z,39.10
2018-03-27T00:14:23.063Z,46.20
2018-03-27T00:15:26.327Z,46.15
2018-03-27T00:16:28.848Z,41.92
2018-03-27T00:17:32.131Z,45.70
2018-03-27T00:18:34.650Z,49.03
2018-03-27T00:19:37.167Z,42.40
2018-03-27T00:20:39.665Z,41.17
2018-03-27T00:21:42.154Z,48.15
2018-03-27T00:22:45.387Z,44.08
2018-03-27T00:23:47.880Z,45.70
2018-03-27T00:24:50.377Z,45.38
2018-03-27T00:25:52.867Z,42.20
2018-03-27T00:27:00.670Z,42.97
2018-03-27T00:28:15.801Z,48.03
2018-03-27T00:29:30.277Z,44.35
2018-03-27T00:30:44.680Z,42.78
2018-03-27T00:31:59.259Z,56.78
2018-03-27T00:33:13.623Z,46.45
2018-03-27T00:34:27.813Z,43.53
2018-03-27T00:35:42.419Z,41.33
2018-03-27T00:36:56.769Z,41.60
2018-03-27T00:38:11.275Z,49.83
2018-03-27T00:39:25.613Z,44.10
2018-03-27T00:40:39.970Z,40.35
2018-03-27T00:43:28.216Z,46.60
2018-03-27T00:44:30.742Z,50.67
2018-03-27T00:45:33.236Z,47.95
2018-03-27T00:46:35.743Z,44.30
2018-03-27T00:47:38.304Z,51.80
2018-03-27T00:48:40.803Z,43.08
2018-03-27T00:49:43.352Z,45.97
2018-03-27T00:50:46.660Z,41.20
2018-03-27T00:51:49.163Z,46.45
2018-03-27T00:52:52.241Z,43.28
2018-03-27T00:53:54.759Z,45.08
2018-03-27T00:54:57.253Z,47.67
2018-03-27T00:55:59.755Z,43.75
2018-03-27T00:57:02.343Z,42.70
2018-03-27T00:58:04.938Z,45.38
2018-03-27T00:59:07.422Z,41.97
2018-03-27T01:00:09.942Z,45.60
2018-03-27T01:01:12.451Z,41.55
2018-03-27T01:02:14.946Z,45.78
2018-03-27T01:03:17.429Z,44.63
2018-03-27T01:04:19.907Z,43.97
2018-03-27T01:05:22.400Z,44.65
2018-03-27T01:06:24.899Z,44.80
2018-03-27T01:07:27.405Z,46.92
2018-03-27T01:08:29.926Z,46.17
2018-03-27T01:09:33.192Z,46.13
2018-03-27T01:10:36.601Z,45.60
2018-03-27T01:11:39.875Z,43.13
2018-03-27T01:12:42.382Z,44.42
2018-03-27T01:13:44.867Z,45.38
2018-03-27T01:14:47.352Z,43.08
2018-03-27T01:15:49.849Z,43.00
2018-03-27T01:16:52.352Z,44.03
2018-03-27T01:17:56.609Z,44.47
2018-03-27T01:18:59.103Z,48.22
2018-03-27T01:20:01.605Z,46.37
2018-03-27T01:21:04.895Z,42.92
2018-03-27T01:22:08.155Z,46.08
2018-03-27T01:23:10.652Z,42.55
2018-03-27T01:24:13.144Z,44.90
2018-03-27T01:25:15.694Z,52.10
2018-03-27T01:26:18.273Z,45.33
2018-03-27T01:27:20.777Z,44.45
2018-03-27T01:28:23.274Z,47.15
2018-03-27T01:29:25.778Z,52.00
2018-03-27T01:30:28.281Z,48.92
2018-03-27T01:31:30.785Z,53.47
2018-03-27T01:32:33.286Z,42.88
2018-03-27T01:34:45.476Z,47.95
2018-03-27T01:35:48.728Z,46.40
2018-03-27T01:36:51.244Z,46.05
2018-03-27T01:37:54.501Z,48.92
2018-03-27T01:38:57.013Z,54.17
2018-03-27T01:39:59.543Z,52.17
2018-03-27T01:41:02.264Z,48.72
2018-03-27T01:42:04.771Z,48.45
2018-03-27T01:43:07.274Z,49.63
2018-03-27T01:44:09.776Z,49.50
2018-03-27T01:45:13.141Z,44.08
2018-03-27T01:46:16.397Z,50.45
2018-03-27T01:47:18.912Z,50.42
2018-03-27T01:48:22.159Z,44.10
2018-03-27T01:49:24.654Z,50.95
2018-03-27T01:50:27.910Z,50.90
2018-03-27T01:51:30.406Z,53.03
2018-03-27T01:52:32.911Z,51.97
2018-03-27T01:53:35.390Z,44.80
2018-03-27T01:54:37.884Z,47.42
2018-03-27T01:55:40.379Z,42.33
2018-03-27T01:56:42.878Z,47.20
2018-03-27T01:57:46.149Z,45.58
2018-03-27T01:58:49.409Z,47.00
2018-03-27T01:59:51.958Z,45.05
2018-03-27T02:00:54.448Z,51.35
2018-03-27T02:01:56.934Z,46.97
2018-03-27T02:02:59.438Z,47.28
2018-03-27T02:04:01.938Z,47.67
2018-03-27T02:05:04.488Z,43.60
2018-03-27T02:06:06.982Z,53.45
2018-03-27T02:07:09.465Z,51.75
2018-03-27T02:08:11.972Z,56.17
2018-03-27T02:09:15.232Z,48.60
2018-03-27T02:10:17.719Z,50.35
2018-03-27T02:11:26.574Z,53.38
2018-03-27T02:12:34.764Z,53.30
2018-03-27T02:13:43.608Z,49.47
2018-03-27T02:14:51.743Z,54.50
2018-03-27T02:15:59.897Z,52.53
2018-03-27T02:17:08.022Z,49.30
2018-03-27T02:18:16.306Z,54.60
2018-03-27T02:19:24.545Z,51.83
2018-03-27T02:20:32.870Z,53.90
2018-03-27T02:21:34.878Z,55.88
2018-03-27T02:22:39.198Z,53.55
2018-03-27T02:23:41.706Z,51.22
2018-03-27T02:24:44.202Z,51.83
2018-03-27T02:25:47.465Z,53.87
2018-03-27T02:26:49.955Z,55.58
2018-03-27T02:27:52.477Z,53.40
2018-03-27T02:28:55.819Z,55.60
2018-03-27T02:29:59.067Z,55.42
2018-03-27T02:31:01.712Z,55.42
2018-03-27T02:32:04.203Z,52.17
2018-03-27T02:33:06.723Z,47.83
2018-03-27T02:34:09.998Z,50.85
2018-03-27T02:35:12.493Z,53.58
2018-03-27T02:36:15.752Z,55.33
2018-03-27T02:37:18.250Z,55.95
2018-03-27T02:38:21.524Z,53.65
2018-03-27T02:39:24.019Z,50.42
2018-03-27T02:40:26.514Z,60.05
2018-03-27T02:41:29.009Z,49.10
2018-03-27T02:42:31.526Z,50.42
2018-03-27T02:43:34.785Z,51.90
2018-03-27T02:44:37.282Z,60.80
2018-03-27T02:45:40.543Z,57.20
2018-03-27T02:46:43.035Z,54.53
2018-03-27T02:47:45.526Z,48.87
2018-03-27T02:48:48.046Z,52.97
2018-03-27T02:49:50.541Z,54.50
2018-03-27T02:50:55.094Z,52.10
2018-03-27T02:51:57.598Z,55.80
2018-03-27T02:53:00.094Z,52.78
2018-03-27T02:54:03.376Z,51.97
2018-03-27T02:55:05.881Z,52.20
2018-03-27T02:56:08.391Z,60.70
2018-03-27T02:57:10.891Z,56.08
2018-03-27T02:58:13.375Z,51.37
2018-03-27T02:59:16.650Z,49.33
2018-03-27T03:00:19.914Z,51.75
2018-03-27T03:01:22.407Z,53.58
2018-03-27T03:02:25.667Z,60.33
2018-03-27T03:03:28.167Z,52.53
2018-03-27T03:04:31.460Z,57.95
2018-03-27T03:05:34.722Z,54.15
2018-03-27T03:06:37.215Z,50.63
2018-03-27T03:07:40.478Z,57.62
2018-03-27T03:08:42.981Z,49.72
2018-03-27T03:09:46.295Z,54.20
2018-03-27T03:10:48.790Z,56.58
2018-03-27T03:11:51.299Z,61.88
2018-03-27T03:12:53.787Z,54.70
2018-03-27T03:13:56.276Z,51.85
2018-03-27T03:14:58.788Z,54.20
2018-03-27T03:16:01.332Z,54.15
2018-03-27T03:17:03.827Z,54.70
2018-03-27T03:18:06.319Z,51.40
2018-03-27T03:20:10.061Z,58.55
2018-03-27T03:21:12.563Z,57.88
2018-03-27T03:22:15.052Z,56.22
2018-03-27T03:23:17.542Z,62.30
2018-03-27T03:24:20.800Z,60.72
2018-03-27T03:25:23.308Z,56.08
2018-03-27T03:26:26.559Z,62.25
2018-03-27T03:27:29.060Z,60.78
2018-03-27T03:28:32.307Z,53.65
2018-03-27T03:29:34.799Z,50.83
2018-03-27T03:30:37.308Z,53.03
2018-03-27T03:31:39.811Z,51.58
2018-03-27T03:32:42.300Z,55.25
2018-03-27T03:33:44.799Z,55.97
2018-03-27T03:34:48.066Z,56.58
2018-03-27T03:35:50.579Z,55.53
2018-03-27T03:36:53.076Z,55.60
2018-03-27T03:37:55.562Z,55.85
2018-03-27T03:38:58.070Z,53.42
2018-03-27T03:40:01.326Z,57.20
2018-03-27T03:41:03.832Z,50.42
2018-03-27T03:42:07.085Z,55.38
2018-03-27T03:43:09.589Z,50.28
2018-03-27T03:44:12.856Z,54.72
2018-03-27T03:45:15.359Z,50.95
2018-03-27T03:46:17.863Z,60.80
2018-03-27T03:47:20.367Z,53.38
2018-03-27T03:48:22.864Z,51.58
2018-03-27T03:49:26.131Z,62.67
2018-03-27T03:50:29.388Z,52.55
2018-03-27T03:51:31.882Z,56.85
2018-03-27T03:52:34.382Z,48.80
2018-03-27T03:53:36.868Z,52.38
2018-03-27T03:54:39.354Z,51.88
2018-03-27T03:55:41.844Z,58.35
2018-03-27T03:56:44.351Z,53.22
2018-03-27T03:57:47.622Z,48.58
2018-03-27T03:58:50.127Z,55.60
2018-03-27T03:59:52.624Z,57.47
2018-03-27T04:00:55.118Z,58.53
2018-03-27T04:01:57.629Z,56.17
2018-03-27T04:03:00.909Z,56.40
2018-03-27T04:04:04.160Z,62.05
2018-03-27T04:05:06.640Z,56.85
2018-03-27T04:06:09.130Z,50.92
2018-03-27T04:07:12.388Z,53.92
2018-03-27T04:08:14.892Z,51.05
2018-03-27T04:09:18.137Z,48.97
2018-03-27T04:10:20.665Z,52.45
2018-03-27T04:11:23.210Z,52.35
2018-03-27T04:12:25.685Z,54.72
2018-03-27T04:13:28.950Z,55.70
2018-03-27T04:14:31.438Z,55.12
2018-03-27T04:15:33.951Z,56.22
2018-03-27T04:16:36.451Z,57.35
2018-03-27T04:17:38.946Z,57.65
2018-03-27T04:18:42.382Z,57.47
2018-03-27T04:19:44.871Z,56.10
2018-03-27T04:20:47.382Z,61.13
2018-03-27T04:21:50.646Z,64.18
2018-03-27T04:22:53.167Z,64.65
2018-03-27T04:23:55.679Z,57.45
2018-03-27T04:24:58.385Z,57.95
2018-03-27T04:26:00.923Z,64.10
2018-03-27T04:27:03.423Z,61.80
2018-03-27T04:28:05.940Z,53.67
2018-03-27T04:29:08.430Z,63.30
2018-03-27T04:30:11.838Z,57.72
2018-03-27T04:31:14.333Z,59.85
2018-03-27T04:32:17.596Z,65.45
2018-03-27T04:33:20.121Z,62.90
2018-03-27T04:34:22.647Z,55.92
2018-03-27T04:35:25.162Z,58.30
2018-03-27T04:36:27.646Z,57.25
2018-03-27T04:37:30.143Z,65.30
2018-03-27T04:38:32.726Z,63.05
2018-03-27T04:39:35.224Z,59.67
2018-03-27T04:40:38.478Z,68.07
2018-03-27T04:41:40.972Z,64.80
2018-03-27T04:42:43.458Z,62.58
2018-03-27T04:43:45.976Z,62.62
2018-03-27T04:44:50.150Z,66.87
2018-03-27T04:45:52.645Z,78.37
2018-03-27T04:46:55.133Z,60.45
2018-03-27T04:47:57.626Z,70.82
2018-03-27T04:49:00.151Z,57.22
2018-03-27T04:50:02.909Z,67.32
2018-03-27T04:51:05.438Z,64.32
2018-03-27T04:52:07.935Z,66.82
2018-03-27T04:53:11.879Z,73.82
2018-03-27T04:54:14.395Z,73.15
2018-03-27T04:55:16.907Z,70.53
2018-03-27T04:56:19.414Z,67.62
2018-03-27T04:57:21.907Z,70.50
2018-03-27T04:58:25.220Z,69.72
2018-03-27T04:59:27.739Z,75.95
2018-03-27T05:00:30.236Z,85.68
2018-03-27T05:01:34.438Z,88.12
2018-03-27T05:02:37.699Z,78.30
2018-03-27T05:03:40.208Z,74.80
2018-03-27T05:04:43.472Z,79.68
2018-03-27T05:05:45.964Z,74.05
2018-03-27T05:06:49.231Z,80.12
2018-03-27T05:07:51.715Z,85.78
2018-03-27T05:08:54.206Z,77.90
2018-03-27T05:09:57.496Z,83.82
2018-03-27T05:10:59.990Z,80.22
2018-03-27T05:12:02.515Z,79.55
2018-03-27T05:13:05.070Z,80.22
2018-03-27T05:14:07.802Z,90.50
2018-03-27T05:15:10.336Z,91.95
2018-03-27T05:16:13.547Z,93.90
2018-03-27T05:17:16.059Z,94.28
2018-03-27T05:18:19.329Z,87.55
2018-03-27T05:19:21.829Z,95.18
2018-03-27T05:20:24.344Z,96.97
2018-03-27T05:21:26.849Z,97.32
2018-03-27T05:22:30.179Z,105.60
2018-03-27T05:23:33.449Z,100.25
2018-03-27T05:24:35.948Z,88.57
2018-03-27T05:25:39.232Z,101.00
2018-03-27T05:26:42.486Z,112.70
2018-03-27T05:27:44.976Z,108.97
2018-03-27T05:28:47.485Z,101.90
2018-03-27T05:29:49.960Z,96.22
2018-03-27T05:30:52.959Z,109.30
2018-03-27T05:31:55.853Z,103.57
2018-03-27T05:32:58.349Z,106.18
2018-03-27T05:34:01.711Z,114.07
2018-03-27T05:44:55.010Z,81.68
2018-03-27T05:45:58.318Z,110.05
2018-03-27T05:47:00.858Z,96.90
2018-03-27T05:48:03.369Z,99.85
2018-03-27T05:49:05.997Z,105.00
2018-03-27T05:50:08.498Z,104.95
2018-03-27T05:51:12.441Z,100.65
2018-03-27T05:52:15.365Z,98.45
2018-03-27T05:53:18.650Z,99.57
2018-03-27T05:54:21.688Z,101.22
2018-03-27T05:55:25.159Z,92.78
2018-03-27T05:56:27.687Z,104.85
2018-03-27T05:57:30.179Z,95.47
2018-03-27T05:58:33.432Z,84.80
2018-03-27T05:59:35.946Z,88.75
2018-03-27T06:00:39.202Z,92.22
2018-03-27T06:01:41.718Z,80.15
2018-03-27T06:02:44.210Z,90.12
2018-03-27T06:03:46.707Z,81.28
2018-03-27T06:04:49.193Z,86.80
2018-03-27T06:05:51.690Z,74.87
2018-03-27T06:06:54.991Z,71.80
2018-03-27T06:07:57.493Z,81.60
2018-03-27T06:09:00.002Z,66.93
2018-03-27T06:10:03.335Z,69.95
2018-03-27T06:11:06.660Z,60.70
2018-03-27T06:12:09.941Z,70.35
2018-03-27T06:13:12.455Z,57.13
2018-03-27T06:14:14.943Z,51.97
2018-03-27T06:15:17.436Z,57.65
2018-03-27T06:16:19.937Z,54.97
2018-03-27T06:17:22.434Z,46.10
2018-03-27T06:18:25.714Z,49.22
2018-03-27T06:19:28.988Z,43.83
2018-03-27T06:20:31.483Z,45.75
2018-03-27T06:21:33.970Z,45.90
2018-03-27T06:22:36.494Z,42.08
2018-03-27T06:23:39.001Z,45.05
2018-03-27T06:24:41.494Z,42.08
2018-03-27T06:25:44.718Z,42.15
2018-03-27T06:26:47.221Z,47.45
2018-03-27T06:27:49.749Z,50.22
2018-03-27T06:28:52.246Z,40.30
2018-03-27T06:29:55.517Z,40.15
2018-03-27T06:30:58.024Z,42.62
2018-03-27T06:32:00.600Z,42.33
2018-03-27T06:33:03.115Z,43.22
2018-03-27T06:34:05.612Z,41.00
2018-03-27T06:35:08.888Z,43.58
2018-03-27T06:36:12.932Z,41.08
2018-03-27T06:37:15.459Z,42.28
2018-03-27T06:38:17.972Z,45.15
2018-03-27T06:39:21.446Z,41.45
2018-03-27T06:40:24.854Z,41.15
2018-03-27T06:41:27.369Z,42.78
2018-03-27T06:42:30.621Z,44.63
2018-03-27T06:43:33.146Z,36.35
2018-03-27T06:44:35.629Z,40.90
2018-03-27T06:45:39.808Z,44.85
2018-03-27T06:46:42.276Z,40.28
2018-03-27T06:47:44.758Z,41.63
2018-03-27T06:48:47.290Z,41.58
2018-03-27T06:49:49.774Z,48.65
2018-03-27T06:50:52.262Z,46.08
2018-03-27T06:51:54.765Z,40.20
2018-03-27T06:52:57.273Z,47.80
2018-03-27T06:53:59.773Z,44.17
2018-03-27T06:55:02.333Z,55.25
2018-03-27T06:56:04.960Z,79.37
2018-03-27T06:57:07.451Z,55.15
2018-03-27T06:58:10.761Z,92.90
2018-03-27T06:59:13.271Z,46.03
2018-03-27T07:00:15.766Z,56.65
2018-03-27T07:01:19.245Z,49.53
2018-03-27T07:02:21.765Z,99.43
2018-03-27T07:03:24.245Z,55.15
2018-03-27T07:04:26.748Z,48.75
2018-03-27T07:05:29.283Z,45.78
2018-03-27T07:06:32.597Z,63.15
2018-03-27T07:07:35.998Z,48.92
2018-03-27T07:08:38.509Z,47.20
2018-03-27T07:09:41.043Z,49.25
2018-03-27T07:10:43.614Z,53.05
2018-03-27T07:11:46.923Z,47.85
2018-03-27T07:12:49.424Z,46.58
2018-03-27T07:13:51.936Z,43.80
2018-03-27T07:14:54.461Z,44.22
2018-03-27T07:15:56.951Z,59.33
2018-03-27T07:17:00.204Z,43.63
2018-03-27T07:18:02.703Z,46.40
2018-03-27T07:19:05.978Z,55.15
2018-03-27T07:20:08.500Z,68.87
2018-03-27T07:21:11.013Z,61.35
2018-03-27T07:22:14.277Z,65.60
2018-03-27T07:23:17.750Z,52.50
2018-03-27T07:24:20.315Z,46.95
2018-03-27T07:25:22.877Z,42.58
2018-03-27T07:26:26.228Z,48.28
2018-03-27T07:27:28.711Z,48.75
2018-03-27T07:28:31.969Z,59.13
2018-03-27T07:29:34.668Z,60.97
2018-03-27T07:30:37.197Z,72.65
2018-03-27T07:31:39.695Z,47.83
2018-03-27T07:32:42.190Z,73.80
2018-03-27T07:33:45.446Z,45.17
2018-03-27T07:34:47.933Z,79.55
2018-03-27T07:35:52.017Z,61.83
2018-03-27T07:36:54.519Z,57.17
2018-03-27T07:37:57.008Z,58.70
2018-03-27T07:39:00.246Z,69.28
2018-03-27T07:40:02.741Z,71.72
2018-03-27T07:41:05.265Z,58.08
2018-03-27T07:42:07.834Z,49.65
2018-03-27T07:43:10.346Z,47.33
2018-03-27T07:44:12.858Z,44.97
2018-03-27T07:45:16.134Z,55.83
2018-03-27T07:46:18.657Z,57.13
2018-03-27T07:47:21.148Z,56.25
2018-03-27T07:48:23.667Z,60.03
2018-03-27T07:49:26.196Z,51.83
2018-03-27T07:50:28.734Z,50.63
2018-03-27T07:51:31.245Z,48.28
2018-03-27T07:52:34.531Z,45.58
2018-03-27T07:53:37.035Z,50.00
2018-03-27T07:54:39.546Z,51.80
2018-03-27T07:55:42.043Z,46.30
2018-03-27T07:56:44.558Z,52.95
2018-03-27T07:57:47.069Z,54.17
2018-03-27T07:58:49.567Z,54.10
2018-03-27T07:59:52.821Z,59.45
2018-03-27T08:00:55.331Z,56.13
2018-03-27T08:01:58.623Z,56.03
2018-03-27T08:03:01.883Z,54.28
2018-03-27T08:04:05.213Z,62.13
2018-03-27T08:05:07.718Z,50.92
2018-03-27T08:06:11.378Z,51.28
2018-03-27T08:07:13.993Z,57.60
2018-03-27T08:08:16.490Z,57.45
2018-03-27T08:09:19.103Z,57.67
2018-03-27T08:10:21.617Z,56.45
2018-03-27T08:11:24.101Z,52.38
2018-03-27T08:12:26.636Z,63.90
2018-03-27T08:13:29.125Z,61.37
2018-03-27T08:14:31.619Z,71.87
2018-03-27T08:15:34.120Z,68.82
2018-03-27T08:16:36.623Z,68.07
2018-03-27T08:17:39.117Z,64.68
2018-03-27T08:18:41.610Z,60.55
2018-03-27T08:19:44.877Z,79.10
2018-03-27T08:20:47.370Z,70.85
2018-03-27T08:21:50.651Z,74.97
2018-03-27T08:22:53.946Z,63.67
2018-03-27T08:23:57.272Z,73.55
2018-03-27T08:25:00.637Z,76.07
2018-03-27T08:26:03.914Z,70.82
2018-03-27T08:27:07.220Z,76.35
2018-03-27T08:28:09.899Z,75.22
2018-03-27T08:29:12.423Z,77.70
2018-03-27T08:30:15.722Z,77.35
2018-03-27T08:31:18.331Z,75.40
2018-03-27T08:32:20.835Z,75.32
2018-03-27T08:33:23.344Z,70.82
2018-03-27T08:34:27.616Z,74.87
2018-03-27T08:35:30.159Z,77.62
2018-03-27T08:36:32.667Z,78.80
2018-03-27T08:37:35.189Z,76.40
2018-03-27T08:38:39.200Z,73.20
2018-03-27T08:39:41.772Z,77.10
2018-03-27T08:40:44.267Z,88.12
2018-03-27T08:41:48.845Z,76.68
2018-03-27T08:42:53.371Z,77.07
2018-03-27T08:43:56.662Z,82.43
2018-03-27T08:44:59.173Z,77.90
2018-03-27T08:46:01.678Z,87.85
2018-03-27T08:47:05.162Z,82.80
2018-03-27T08:48:07.651Z,83.28
2018-03-27T08:49:12.854Z,83.45
2018-03-27T08:50:15.381Z,77.85
2018-03-27T08:51:17.893Z,82.07
2018-03-27T08:52:20.515Z,77.65
2018-03-27T08:53:23.890Z,80.78
2018-03-27T08:54:27.197Z,82.32
2018-03-27T08:55:29.720Z,80.87
2018-03-27T08:56:32.639Z,97.95
2018-03-27T08:57:36.503Z,84.40
2018-03-27T08:58:39.322Z,83.25
2018-03-27T08:59:41.821Z,83.60
2018-03-27T09:00:44.350Z,82.28
2018-03-27T09:01:48.427Z,84.15
2018-03-27T09:02:51.907Z,89.78
2018-03-27T09:03:54.436Z,84.85
2018-03-27T09:04:56.936Z,79.80
2018-03-27T09:05:59.422Z,93.32
2018-03-27T09:07:01.922Z,97.70
2018-03-27T09:08:04.429Z,97.70
2018-03-27T09:09:06.953Z,90.32
2018-03-27T09:10:09.551Z,97.15
2018-03-27T09:11:12.822Z,87.18
2018-03-27T09:12:16.280Z,104.38
2018-03-27T09:13:18.797Z,93.25
2018-03-27T09:14:22.120Z,99.00
2018-03-27T09:15:25.494Z,111.88
2018-03-27T09:16:27.972Z,113.88
2018-03-27T09:17:32.364Z,112.85
2018-03-27T09:18:35.646Z,108.65
2018-03-27T09:19:38.905Z,107.43
2018-03-27T09:20:41.424Z,110.03
2018-03-27T09:21:43.998Z,108.45
2018-03-27T09:22:46.510Z,97.18
2018-03-27T09:23:49.027Z,101.12
2018-03-27T09:24:52.277Z,102.12
2018-03-27T09:25:55.584Z,99.03
2018-03-27T09:26:59.790Z,108.82
2018-03-27T09:28:02.298Z,98.65
2018-03-27T09:29:04.789Z,108.30
2018-03-27T09:30:07.284Z,101.60
2018-03-27T09:31:09.830Z,104.20
2018-03-27T09:32:12.338Z,93.00
2018-03-27T09:33:14.867Z,97.37
2018-03-27T09:34:19.397Z,97.03
2018-03-27T09:35:21.938Z,84.30
2018-03-27T09:36:25.298Z,86.03
2018-03-27T09:37:27.787Z,94.68
2018-03-27T09:38:30.272Z,96.80
2018-03-27T09:39:33.238Z,98.32
2018-03-27T09:40:35.757Z,95.00
2018-03-27T09:41:38.299Z,87.22
2018-03-27T09:42:42.530Z,76.12
2018-03-27T09:43:45.044Z,66.75
2018-03-27T09:44:47.540Z,65.53
2018-03-27T09:45:50.800Z,71.03
2018-03-27T09:46:53.310Z,75.18
2018-03-27T09:47:55.825Z,72.37
2018-03-27T09:48:58.318Z,59.83
2018-03-27T09:50:01.844Z,62.15
2018-03-27T09:51:04.343Z,61.30
2018-03-27T09:52:07.099Z,70.62
2018-03-27T09:53:09.759Z,74.65
2018-03-27T09:54:13.041Z,60.78
2018-03-27T09:55:16.593Z,66.82
2018-03-27T09:56:19.105Z,65.15
2018-03-27T09:57:22.392Z,65.43
2018-03-27T09:58:25.702Z,58.00
2018-03-27T09:59:28.189Z,60.55
2018-03-27T10:00:36.445Z,70.87
2018-03-27T10:01:39.911Z,66.22
2018-03-27T10:02:42.431Z,77.97
2018-03-27T10:03:44.932Z,75.78
2018-03-27T10:04:47.462Z,70.28
2018-03-27T10:05:50.731Z,76.95
2018-03-27T10:06:53.255Z,77.43
2018-03-27T10:07:55.815Z,72.20
2018-03-27T10:08:58.349Z,66.93
2018-03-27T10:10:00.844Z,56.75
2018-03-27T10:11:04.133Z,56.37
2018-03-27T10:12:07.418Z,66.32
2018-03-27T10:13:10.710Z,56.15
2018-03-27T10:14:13.999Z,57.25
2018-03-27T10:15:17.304Z,59.53
2018-03-27T10:16:19.881Z,55.00
2018-03-27T10:17:23.610Z,51.20
2018-03-27T10:18:26.130Z,59.00
2018-03-27T10:19:28.618Z,58.50
2018-03-27T10:20:31.135Z,56.58
2018-03-27T10:21:33.684Z,51.92
2018-03-27T10:22:36.216Z,56.90
2018-03-27T10:23:38.725Z,56.20
2018-03-27T10:24:41.249Z,53.55
2018-03-27T10:25:44.652Z,53.30
2018-03-27T10:26:47.170Z,51.03
2018-03-27T10:27:49.675Z,48.65
2018-03-27T10:28:52.982Z,56.72
2018-03-27T10:29:55.474Z,42.15
2018-03-27T10:30:57.992Z,47.67
2018-03-27T10:32:00.487Z,44.05
2018-03-27T10:33:03.056Z,39.55
2018-03-27T10:34:05.563Z,43.25
2018-03-27T10:35:08.071Z,41.40
2018-03-27T10:36:10.587Z,47.62
2018-03-27T10:37:13.134Z,47.03
2018-03-27T10:38:16.410Z,44.10
2018-03-27T10:39:19.687Z,45.10
2018-03-27T10:40:22.198Z,45.22
2018-03-27T10:41:24.765Z,39.45
2018-03-27T10:42:27.263Z,37.42
2018-03-27T10:43:29.786Z,42.10
2018-03-27T10:44:34.125Z,26.12
2018-03-27T10:45:36.643Z,28.30
2018-03-27T10:46:39.159Z,29.50
2018-03-27T10:47:41.674Z,23.05
2018-03-27T10:48:44.208Z,30.60
2018-03-27T10:49:46.745Z,23.33
2018-03-27T10:50:50.012Z,26.85
2018-03-27T10:51:53.283Z,22.37
2018-03-27T10:52:55.780Z,18.62
2018-03-27T10:53:58.285Z,16.15
2018-03-27T10:55:00.809Z,18.00
2018-03-27T10:56:03.314Z,17.55
2018-03-27T10:57:05.854Z,15.80
2018-03-27T10:58:08.446Z,22.00
2018-03-27T10:59:10.992Z,18.23
2018-03-27T11:00:13.525Z,22.58
2018-03-27T11:01:16.042Z,16.50
2018-03-27T11:02:18.530Z,21.62
2018-03-27T11:03:21.065Z,19.95
2018-03-27T11:04:23.590Z,18.67
2018-03-27T11:05:26.852Z,22.70
2018-03-27T11:06:29.342Z,22.17
2018-03-27T11:07:32.627Z,19.58
2018-03-27T11:08:35.909Z,18.73
2018-03-27T11:09:39.187Z,23.52
2018-03-27T11:10:41.702Z,38.08
2018-03-27T11:11:44.264Z,24.02
2018-03-27T11:12:46.770Z,19.50
2018-03-27T11:13:49.277Z,18.77
2018-03-27T11:14:51.820Z,18.73
2018-03-27T11:15:54.322Z,24.35
2018-03-27T11:16:57.595Z,25.30
2018-03-27T11:18:00.093Z,21.40
2018-03-27T11:19:02.612Z,20.98
2018-03-27T11:20:05.132Z,24.30
2018-03-27T11:21:08.403Z,19.80
2018-03-27T11:22:11.072Z,22.95
2018-03-27T11:23:13.627Z,22.52
2018-03-27T11:24:16.135Z,19.42
2018-03-27T11:25:18.654Z,21.12
2018-03-27T11:26:21.154Z,17.83
2018-03-27T11:27:23.663Z,18.15
2018-03-27T11:28:26.168Z,19.75
2018-03-27T11:29:28.741Z,19.17
2018-03-27T11:30:31.222Z,15.60
2018-03-27T11:31:33.737Z,14.95
2018-03-27T11:32:36.274Z,16.80
2018-03-27T11:33:38.775Z,13.52
2018-03-27T11:34:41.313Z,17.45
2018-03-27T11:35:43.866Z,19.00
2018-03-27T11:36:46.379Z,21.83
2018-03-27T11:37:49.676Z,19.02
2018-03-27T11:38:52.954Z,14.00
2018-03-27T11:39:56.231Z,15.40
2018-03-27T11:40:59.516Z,19.02
2018-03-27T11:42:02.047Z,12.85
2018-03-27T11:43:04.590Z,16.27
2018-03-27T11:44:07.105Z,13.20
2018-03-27T11:45:09.629Z,15.77
2018-03-27T11:46:12.136Z,14.00
2018-03-27T11:47:14.681Z,13.62
2018-03-27T11:48:17.218Z,12.82
2018-03-27T11:49:20.510Z,18.15
2018-03-27T11:50:23.779Z,12.70
2018-03-27T11:51:26.287Z,15.98
2018-03-27T11:52:28.826Z,12.77
2018-03-27T11:53:32.102Z,13.57
2018-03-27T11:54:34.663Z,14.20
2018-03-27T11:55:37.106Z,13.32
2018-03-27T11:56:39.603Z,13.07
2018-03-27T11:57:42.143Z,13.02
2018-03-27T11:58:44.650Z,12.70
2018-03-27T11:59:47.155Z,10.98
2018-03-27T12:00:49.704Z,12.50
2018-03-27T12:01:52.220Z,16.45
2018-03-27T12:02:54.717Z,12.27
2018-03-27T12:03:57.220Z,13.00
2018-03-27T12:05:00.490Z,14.35
2018-03-27T12:06:03.009Z,11.27
2018-03-27T12:07:05.555Z,14.32
2018-03-27T12:08:08.925Z,13.80
2018-03-27T12:09:12.254Z,12.32
2018-03-27T12:10:14.765Z,12.60
2018-03-27T12:11:17.307Z,18.85
2018-03-27T12:12:19.813Z,11.50
2018-03-27T12:13:22.327Z,15.30
2018-03-27T12:14:25.599Z,13.73
2018-03-27T12:15:28.115Z,10.20
2018-03-27T12:16:30.606Z,10.35
2018-03-27T12:17:33.132Z,12.63
2018-03-27T12:18:36.150Z,12.95
2018-03-27T12:19:38.645Z,13.75
2018-03-27T12:20:41.143Z,13.60
2018-03-27T12:21:44.424Z,9.77
2018-03-27T12:22:47.711Z,12.57
2018-03-27T12:23:50.219Z,11.95
2018-03-27T12:24:52.758Z,10.93
2018-03-27T12:25:56.158Z,12.77
2018-03-27T12:26:59.416Z,10.40
2018-03-27T12:28:02.953Z,14.43
2018-03-27T12:29:05.480Z,12.95
2018-03-27T12:30:08.003Z,10.25
2018-03-27T12:31:10.513Z,11.02
2018-03-27T12:32:13.059Z,11.82
2018-03-27T12:33:15.599Z,11.23
2018-03-27T12:34:18.951Z,11.48
2018-03-27T12:35:21.444Z,14.05
2018-03-27T12:36:24.728Z,12.75
2018-03-27T12:37:27.993Z,12.65
2018-03-27T12:38:30.517Z,10.82
2018-03-27T12:39:33.088Z,13.93
2018-03-27T12:40:35.584Z,14.07
2018-03-27T12:41:38.166Z,11.95
2018-03-27T12:42:40.683Z,14.93
2018-03-27T12:43:43.932Z,11.12
2018-03-27T12:44:46.456Z,13.70
2018-03-27T12:45:48.965Z,10.63
2018-03-27T12:46:51.488Z,10.75
2018-03-27T12:47:53.999Z,11.05
2018-03-27T12:48:56.492Z,10.68
2018-03-27T12:49:59.046Z,13.75
2018-03-27T12:51:01.574Z,14.00
2018-03-27T12:52:04.093Z,9.82
2018-03-27T12:53:06.591Z,17.27
2018-03-27T12:54:09.103Z,10.82
2018-03-27T12:55:11.668Z,14.00
2018-03-27T12:56:14.191Z,15.23
2018-03-27T12:57:16.740Z,13.50
2018-03-27T12:58:19.284Z,12.25
2018-03-27T12:59:21.788Z,17.83
2018-03-27T13:00:24.339Z,12.57
2018-03-27T13:01:27.720Z,14.20
2018-03-27T13:02:30.224Z,12.48
2018-03-27T13:03:32.747Z,12.52
2018-03-27T13:04:35.326Z,15.55
2018-03-27T13:05:37.910Z,14.32
2018-03-27T13:06:40.470Z,18.60
2018-03-27T13:07:42.968Z,12.13
2018-03-27T13:08:45.475Z,12.20
2018-03-27T13:09:48.759Z,10.90
2018-03-27T13:10:51.283Z,13.20
2018-03-27T13:11:53.790Z,11.07
2018-03-27T13:12:56.314Z,14.10
2018-03-27T13:13:58.815Z,10.32
2018-03-27T13:15:01.347Z,11.57
2018-03-27T13:16:03.896Z,12.10
2018-03-27T13:17:07.186Z,11.05
2018-03-27T13:18:10.469Z,12.95
2018-03-27T13:19:13.752Z,19.37
2018-03-27T13:20:16.300Z,12.85
2018-03-27T13:21:18.848Z,10.38
2018-03-27T13:22:21.354Z,9.90
2018-03-27T13:23:23.866Z,13.50
2018-03-27T13:24:26.397Z,14.77
2018-03-27T13:25:28.911Z,14.50
2018-03-27T13:26:31.431Z,13.07
2018-03-27T13:27:33.958Z,13.00
2018-03-27T13:28:36.505Z,14.87
2018-03-27T13:29:39.760Z,13.38
2018-03-27T13:30:42.265Z,18.85
2018-03-27T13:31:45.542Z,15.00
2018-03-27T13:32:48.036Z,15.60
2018-03-27T13:33:50.546Z,11.25
2018-03-27T13:34:53.038Z,11.80
2018-03-27T13:35:55.541Z,14.65
2018-03-27T13:36:58.062Z,10.88
2018-03-27T13:38:00.581Z,13.00
2018-03-27T13:39:03.883Z,12.75
2018-03-27T13:40:06.370Z,12.15
2018-03-27T13:41:08.872Z,11.73
2018-03-27T13:42:12.891Z,13.93
2018-03-27T13:43:15.461Z,15.30
2018-03-27T13:44:17.963Z,17.00